Terminal Aerodrome Forecast
Issued by NWS

Home | Current Version | Previous Version | Text Only | Print | Product List | Glossary On
Versions: 1 2 3 4 5 6 7 8 9 10 11 12
000
FTUS45 KPIH 161700
TAFSUN
TAF
KSUN 161720Z 1618/1718 12009KT P6SM VCSH SCT100
     FM162200 22010KT P6SM FEW080 SCT120
     FM170300 31009KT P6SM SCT250=

USA.gov is the U.S. government's official web portal to all federal, state and local government web resources and services.